Аэропорт: Бесовец. Петрозаводск

ICAO: ULPB

METAR:
2019-09-21 16:00:00
ULPB 211600Z AUTO 26002MPS 9999 // NSC 05/02 Q1004 RMK QFE749/0999
METAR:
Информация по данной станции не доступна